Time;durP1;ratioP1;P1;durP2;ratioP2;P2;SDS_P1;SDS_P2;PMS_P1;PMS_P2;Temp;Humidity;BMP_temperature;BMP_pressure;BME280_temperature;BME280_humidity;BME280_pressure;Samples;Min_cycle;Max_cycle;Signal;HPM_P1;HPM_P2
2022/03/22 00:01:32;;;;;;;17.98;13.30;;;12.30;56.00;;;;;;5018685;28;20034;-83
2022/03/22 00:04:02;;;;;;;19.20;14.95;;;12.30;56.10;;;;;;5024808;28;20043;-83
2022/03/22 00:06:31;;;;;;;17.15;14.93;;;12.20;55.90;;;;;;5014519;28;20029;-81
2022/03/22 00:08:57;;;;;;;19.27;14.70;;;12.20;56.00;;;;;;5025098;28;20053;-82
2022/03/22 00:11:23;;;;;;;19.15;14.55;;;12.20;56.00;;;;;;5014604;28;20053;-82
2022/03/22 00:13:49;;;;;;;16.77;14.02;;;12.20;56.10;;;;;;5022443;28;20491;-82
2022/03/22 00:16:15;;;;;;;16.60;13.90;;;12.20;56.10;;;;;;5022690;28;20267;-83
2022/03/22 00:18:41;;;;;;;15.48;13.82;;;12.20;56.10;;;;;;5024684;28;20128;-82
2022/03/22 00:21:07;;;;;;;20.00;14.63;;;12.20;56.20;;;;;;5030680;28;20226;-82
2022/03/22 00:23:34;;;;;;;17.45;14.02;;;12.20;56.20;;;;;;5020893;28;20401;-81
2022/03/22 00:26:00;;;;;;;19.58;14.57;;;12.20;56.30;;;;;;5023608;28;20076;-81
2022/03/22 00:28:26;;;;;;;19.52;14.52;;;12.10;56.10;;;;;;5039312;28;20029;-81
2022/03/22 00:30:54;;;;;;;18.08;14.07;;;12.20;56.30;;;;;;5029865;28;20556;-82
2022/03/22 00:33:20;;;;;;;17.08;13.15;;;12.10;56.20;;;;;;5007300;28;20116;-81
2022/03/22 00:35:46;;;;;;;15.90;13.57;;;12.10;56.20;;;;;;5005646;28;20112;-81
2022/03/22 00:38:18;;;;;;;18.05;15.70;;;12.10;56.30;;;;;;5011243;28;20095;-81
2022/03/22 00:40:44;;;;;;;20.73;14.98;;;12.10;56.30;;;;;;5025250;28;20033;-81
2022/03/22 00:43:10;;;;;;;18.50;15.65;;;12.10;56.30;;;;;;5023530;28;20412;-82
2022/03/22 00:45:37;;;;;;;20.70;14.63;;;12.10;56.30;;;;;;5034416;28;20108;-81
2022/03/22 00:48:06;;;;;;;19.17;15.70;;;12.00;56.20;;;;;;5022576;28;20053;-82
2022/03/22 00:50:38;;;;;;;17.42;14.77;;;12.10;56.40;;;;;;5024435;28;20476;-82
2022/03/22 00:53:07;;;;;;;16.27;13.55;;;12.00;56.80;;;;;;5022242;28;20026;-82
2022/03/22 00:55:33;;;;;;;16.50;14.05;;;12.00;56.30;;;;;;5023067;28;20133;-82
2022/03/22 00:58:00;;;;;;;20.58;14.57;;;12.00;56.30;;;;;;5011458;28;20034;-83
2022/03/22 01:00:27;;;;;;;17.50;14.07;;;12.00;56.30;;;;;;5024123;28;20033;-83
2022/03/22 01:02:55;;;;;;;17.23;13.60;;;12.00;56.40;;;;;;5038613;28;20048;-84
2022/03/22 01:05:23;;;;;;;17.92;15.35;;;12.00;56.50;;;;;;5029169;28;20121;-84
2022/03/22 01:07:52;;;;;;;16.80;13.50;;;12.00;56.50;;;;;;5024374;28;20153;-83
2022/03/22 01:10:20;;;;;;;19.33;14.57;;;11.90;56.30;;;;;;5027346;28;20044;-83
2022/03/22 01:12:48;;;;;;;18.42;14.43;;;11.90;56.40;;;;;;5024974;28;20040;-83
2022/03/22 01:15:20;;;;;;;17.85;14.80;;;11.90;56.40;;;;;;5025013;28;20104;-82
2022/03/22 01:17:49;;;;;;;19.02;14.80;;;11.90;56.50;;;;;;5031729;28;20033;-83
2022/03/22 01:20:16;;;;;;;18.00;15.35;;;11.90;56.50;;;;;;4996093;28;20083;-82
2022/03/22 01:22:45;;;;;;;19.17;14.90;;;11.90;56.50;;;;;;5025779;28;20076;-83
2022/03/22 01:25:17;;;;;;;16.90;14.65;;;11.90;56.60;;;;;;5026059;28;20030;-81
2022/03/22 01:27:48;;;;;;;19.48;15.07;;;11.80;56.50;;;;;;5014243;28;20022;-82
2022/03/22 01:30:19;;;;;;;19.27;15.73;;;11.80;56.40;;;;;;5004051;28;20490;-82
2022/03/22 01:32:46;;;;;;;19.38;15.15;;;11.80;56.50;;;;;;5034151;28;20096;-82
2022/03/22 01:35:12;;;;;;;20.00;15.55;;;11.80;56.50;;;;;;5023151;28;20096;-82
2022/03/22 01:37:39;;;;;;;21.73;16.40;;;11.80;56.50;;;;;;5011639;28;20030;-80
2022/03/22 01:40:07;;;;;;;23.05;16.17;;;11.80;56.50;;;;;;5024251;28;20065;-83
2022/03/22 01:42:34;;;;;;;20.75;16.40;;;11.80;56.60;;;;;;5024135;28;20045;-84
2022/03/22 01:45:02;;;;;;;21.50;17.08;;;11.80;56.60;;;;;;5011505;28;20021;-83
2022/03/22 01:47:28;;;;;;;23.20;16.13;;;11.80;56.60;;;;;;5010906;28;20523;-82
2022/03/22 01:49:54;;;;;;;20.80;16.83;;;11.80;57.20;;;;;;5026115;28;20033;-81
2022/03/22 01:52:23;;;;;;;21.17;16.00;;;11.70;56.60;;;;;;5028249;28;20045;-81
2022/03/22 01:54:51;;;;;;;19.80;16.88;;;11.70;56.60;;;;;;5014677;28;20026;-81
2022/03/22 01:57:18;;;;;;;22.52;17.38;;;11.70;56.60;;;;;;5008245;28;20044;-81
2022/03/22 01:59:45;;;;;;;19.92;16.38;;;11.70;56.70;;;;;;5026967;28;20393;-81
2022/03/22 02:07:44;;;;;;;21.40;16.70;;;11.60;56.50;;;;;;5022992;28;20041;-83
2022/03/22 02:10:10;;;;;;;23.90;17.50;;;11.60;56.60;;;;;;5027102;28;20021;-82
2022/03/22 02:12:38;;;;;;;24.90;18.77;;;11.60;56.70;;;;;;5033346;28;20103;-82
2022/03/22 02:15:05;;;;;;;21.65;16.88;;;11.60;56.70;;;;;;5021333;28;20052;-81
2022/03/22 02:17:31;;;;;;;21.58;16.67;;;11.60;56.80;;;;;;5015103;28;20056;-81
2022/03/22 02:19:58;;;;;;;22.02;16.88;;;11.60;56.80;;;;;;5026936;28;20028;-81
2022/03/22 02:22:41;;;;;;;21.67;16.80;;;11.60;56.90;;;;;;5027627;28;20029;-81
2022/03/22 02:25:15;;;;;;;;;;;11.60;56.90;;;;;;5024233;28;20505;-83
2022/03/22 02:27:44;;;;;;;;;;;11.60;56.80;;;;;;5023858;28;19948;-81
2022/03/22 02:30:15;;;;;;;20.88;16.98;;;11.50;56.50;;;;;;5023014;28;20280;-80
2022/03/22 02:32:52;;;;;;;24.48;18.13;;;11.50;56.40;;;;;;5006815;28;20099;-82
2022/03/22 02:35:19;;;;;;;22.98;18.10;;;11.50;56.50;;;;;;5015671;28;20128;-82
2022/03/22 02:37:46;;;;;;;22.50;18.63;;;11.50;56.50;;;;;;5024007;28;20131;-83
2022/03/22 02:40:13;;;;;;;21.75;17.33;;;11.50;56.60;;;;;;5032462;28;20121;-82
2022/03/22 02:42:53;;;;;;;22.67;18.65;;;11.50;56.70;;;;;;5041845;28;20356;-82
2022/03/22 02:45:23;;;;;;;22.20;17.15;;;11.40;56.60;;;;;;5047160;28;20025;-83
2022/03/22 02:47:50;;;;;;;22.15;16.85;;;11.40;56.60;;;;;;5068280;28;20061;-83
2022/03/22 02:50:18;;;;;;;23.98;18.27;;;11.40;56.70;;;;;;5053042;28;20093;-82
2022/03/22 02:52:45;;;;;;;23.70;19.02;;;11.40;56.70;;;;;;5068556;28;20088;-81
2022/03/22 02:55:11;;;;;;;22.10;17.42;;;11.40;56.80;;;;;;5052975;28;20048;-82
2022/03/22 02:57:38;;;;;;;28.13;19.40;;;11.30;56.60;;;;;;5052699;28;20017;-82
2022/03/22 03:00:10;;;;;;;23.60;18.10;;;11.30;56.70;;;;;;5049776;28;20057;-82
2022/03/22 03:02:49;;;;;;;22.77;18.42;;;11.30;56.80;;;;;;5032233;28;20037;-83
2022/03/22 03:05:16;;;;;;;25.58;19.33;;;11.30;56.80;;;;;;5034712;28;20460;-83
2022/03/22 03:07:42;;;;;;;24.65;18.52;;;11.30;56.80;;;;;;5029936;28;20026;-82
2022/03/22 03:10:09;;;;;;;25.05;18.88;;;11.30;56.80;;;;;;5029848;28;20029;-83
2022/03/22 03:12:36;;;;;;;23.20;18.73;;;11.30;56.90;;;;;;5027478;28;20033;-82
2022/03/22 03:15:04;;;;;;;24.23;19.20;;;11.30;56.90;;;;;;5027825;28;20103;-82
2022/03/22 03:17:29;;;;;;;24.80;20.17;;;11.30;56.90;;;;;;5028908;28;20087;-82
2022/03/22 03:19:55;;;;;;;24.23;18.83;;;11.30;56.90;;;;;;5041398;28;20030;-82
2022/03/22 03:22:23;;;;;;;21.92;18.83;;;11.30;57.00;;;;;;5028064;28;20030;-82
2022/03/22 03:24:48;;;;;;;23.63;19.38;;;11.30;57.00;;;;;;5044013;28;20040;-82
2022/03/22 03:27:15;;;;;;;25.92;19.40;;;11.30;57.00;;;;;;5042408;28;20014;-82
2022/03/22 03:29:41;;;;;;;21.05;17.40;;;11.20;56.90;;;;;;5027462;28;20026;-82
2022/03/22 03:32:08;;;;;;;24.23;18.55;;;11.20;56.90;;;;;;5029645;28;20035;-82
2022/03/22 03:34:34;;;;;;;26.50;18.83;;;11.20;57.50;;;;;;5025269;28;20342;-81
2022/03/22 03:37:00;;;;;;;24.40;19.20;;;11.20;57.00;;;;;;5021337;28;20391;-83
2022/03/22 03:39:25;;;;;;;27.33;19.63;;;11.20;57.30;;;;;;5027457;28;20028;-82
2022/03/22 03:41:56;;;;;;;28.33;20.25;;;11.10;56.90;;;;;;5028259;28;20032;-82
2022/03/22 03:47:14;;;;;;;26.48;20.27;;;11.10;57.10;;;;;;5027984;28;20056;-82
2022/03/22 03:49:58;;;;;;;27.48;22.33;;;11.10;57.10;;;;;;5031206;28;20041;-85
2022/03/22 03:52:28;;;;;;;24.80;19.75;;;11.00;57.00;;;;;;5028157;28;20040;-83
2022/03/22 03:54:55;;;;;;;27.23;20.55;;;11.00;57.00;;;;;;5027859;28;20021;-83
2022/03/22 03:57:22;;;;;;;28.52;20.63;;;11.00;57.10;;;;;;5026420;28;20042;-84
2022/03/22 03:59:49;;;;;;;25.45;20.13;;;10.90;56.90;;;;;;5026085;28;20092;-83
2022/03/22 04:02:16;;;;;;;28.52;21.13;;;10.90;57.00;;;;;;5026194;28;20461;-83
2022/03/22 04:04:43;;;;;;;25.27;19.40;;;10.90;57.10;;;;;;5017628;28;20052;-83
2022/03/22 04:07:11;;;;;;;27.05;20.75;;;10.90;57.10;;;;;;5030378;28;20022;-84
2022/03/22 04:09:38;;;;;;;28.08;21.20;;;10.90;57.10;;;;;;5022281;28;20108;-85
2022/03/22 04:12:05;;;;;;;26.83;20.33;;;10.90;57.20;;;;;;5027372;28;20053;-83
2022/03/22 04:14:31;;;;;;;28.00;20.98;;;10.90;57.20;;;;;;5041566;28;20044;-84
2022/03/22 04:16:57;;;;;;;24.00;19.10;;;10.90;57.20;;;;;;5028092;28;20416;-84
2022/03/22 04:19:25;;;;;;;24.27;20.65;;;10.90;57.30;;;;;;5017966;28;20033;-83
2022/03/22 04:21:50;;;;;;;27.02;20.88;;;10.90;57.30;;;;;;5025276;28;20095;-84
2022/03/22 04:24:18;;;;;;;26.33;20.88;;;10.80;57.10;;;;;;5027012;28;20427;-83
2022/03/22 04:26:45;;;;;;;28.20;22.08;;;10.80;57.10;;;;;;5021854;28;20037;-82
2022/03/22 04:35:03;;;;;;;27.40;21.25;;;10.80;57.20;;;;;;5022264;28;20053;-82
2022/03/22 04:37:29;;;;;;;27.58;20.42;;;10.80;57.40;;;;;;5025781;28;20041;-82
2022/03/22 04:39:55;;;;;;;28.50;21.38;;;10.80;57.30;;;;;;5026891;28;20356;-81
2022/03/22 04:42:20;;;;;;;30.25;22.35;;;10.80;57.30;;;;;;5026471;28;20370;-82
2022/03/22 04:44:46;;;;;;;29.23;22.08;;;10.70;57.20;;;;;;5031481;28;20026;-82
2022/03/22 04:47:12;;;;;;;24.92;21.17;;;10.80;57.40;;;;;;5026666;28;20080;-82
2022/03/22 04:49:38;;;;;;;25.45;22.13;;;10.70;57.30;;;;;;5025071;28;20029;-81
2022/03/22 04:57:33;;;;;;;29.75;22.98;;;10.70;57.30;;;;;;5023325;28;20041;-82
2022/03/22 04:59:59;;;;;;;29.02;21.27;;;10.70;57.90;;;;;;5019950;28;20033;-83
2022/03/22 05:02:25;;;;;;;31.70;24.73;;;10.70;57.40;;;;;;5023639;28;20309;-81
2022/03/22 05:04:50;;;;;;;28.83;22.48;;;10.70;57.40;;;;;;5025736;28;20033;-81
2022/03/22 05:07:16;;;;;;;29.75;22.55;;;10.70;57.40;;;;;;5025817;28;20034;-81
2022/03/22 05:09:42;;;;;;;30.27;22.20;;;10.70;57.40;;;;;;5025351;28;20489;-81
2022/03/22 05:12:13;;;;;;;29.42;22.95;;;10.70;57.50;;;;;;5024604;28;20376;-83
2022/03/22 05:14:40;;;;;;;31.52;23.83;;;10.70;57.50;;;;;;5030197;28;20037;-82
2022/03/22 05:17:06;;;;;;;31.30;22.85;;;10.70;57.50;;;;;;5023856;28;20037;-83
2022/03/22 05:19:32;;;;;;;32.10;24.23;;;10.70;57.50;;;;;;5026149;28;20032;-83
2022/03/22 05:21:58;;;;;;;31.70;24.52;;;10.70;58.10;;;;;;5024041;28;20040;-83
2022/03/22 05:24:24;;;;;;;30.67;22.67;;;10.70;57.60;;;;;;5027178;28;20528;-83
2022/03/22 05:26:50;;;;;;;31.35;22.38;;;10.70;57.60;;;;;;5043907;28;20025;-82
2022/03/22 05:29:17;;;;;;;33.60;25.38;;;10.70;57.60;;;;;;5028558;28;20033;-82
2022/03/22 05:31:45;;;;;;;33.05;25.38;;;10.70;57.60;;;;;;5028392;28;20027;-82
2022/03/22 05:34:11;;;;;;;34.33;25.38;;;10.70;57.70;;;;;;5045632;28;20041;-83
2022/03/22 05:36:36;;;;;;;31.30;24.65;;;10.60;57.50;;;;;;5039746;28;20034;-82
2022/03/22 05:39:02;;;;;;;33.20;25.67;;;10.60;57.60;;;;;;5029235;28;20057;-81
2022/03/22 05:41:28;;;;;;;33.45;24.10;;;10.60;57.60;;;;;;5041610;28;20026;-81
2022/03/22 05:43:54;;;;;;;32.10;24.67;;;10.60;57.60;;;;;;5036043;28;20042;-82
2022/03/22 05:46:20;;;;;;;30.67;24.95;;;10.60;57.60;;;;;;5029076;28;20508;-82
2022/03/22 05:48:50;;;;;;;31.17;24.83;;;10.60;57.60;;;;;;5039890;28;20544;-85
2022/03/22 05:51:19;;;;;;;29.17;23.83;;;10.60;57.60;;;;;;5026292;28;20021;-83
2022/03/22 05:53:46;;;;;;;31.33;25.25;;;10.60;57.70;;;;;;5026882;28;20043;-85
2022/03/22 05:56:12;;;;;;;32.60;24.88;;;10.60;57.70;;;;;;5022286;28;20513;-85
2022/03/22 05:58:38;;;;;;;32.15;24.30;;;10.60;57.70;;;;;;5030604;28;20041;-82
2022/03/22 06:01:05;;;;;;;31.52;23.90;;;10.60;57.70;;;;;;5021458;28;20033;-81
2022/03/22 06:03:33;;;;;;;32.90;23.70;;;10.60;57.80;;;;;;5024277;28;20045;-82
2022/03/22 06:05:59;;;;;;;33.72;24.60;;;10.60;57.80;;;;;;5021084;28;20022;-83
2022/03/22 06:08:25;;;;;;;32.63;25.23;;;10.60;57.80;;;;;;5021060;28;20092;-82
2022/03/22 06:10:51;;;;;;;32.90;25.88;;;10.50;57.60;;;;;;5020012;28;20153;-83
2022/03/22 06:13:17;;;;;;;33.45;25.52;;;10.60;57.80;;;;;;5018361;28;20092;-83
2022/03/22 06:15:43;;;;;;;31.75;24.50;;;10.60;57.80;;;;;;5015936;28;20112;-82
2022/03/22 06:18:11;;;;;;;36.65;27.15;;;10.60;57.80;;;;;;5024964;28;20036;-82
2022/03/22 06:20:41;;;;;;;36.05;27.83;;;10.50;57.60;;;;;;5018625;28;20116;-83
2022/03/22 06:23:10;;;;;;;33.92;26.10;;;10.60;57.80;;;;;;5020847;28;20065;-83
2022/03/22 06:25:36;;;;;;;35.47;25.63;;;10.50;57.60;;;;;;5025508;28;20025;-82
2022/03/22 06:28:04;;;;;;;33.15;24.33;;;10.60;57.80;;;;;;5022665;28;20785;-81
2022/03/22 06:30:31;;;;;;;35.58;24.95;;;10.60;57.80;;;;;;5016773;28;20112;-78
2022/03/22 06:33:07;;;;;;;32.22;25.83;;;10.60;57.80;;;;;;5020648;28;20028;-81
2022/03/22 06:35:33;;;;;;;33.90;25.45;;;10.60;57.80;;;;;;5018335;28;20116;-82
2022/03/22 06:38:01;;;;;;;32.15;25.48;;;10.60;57.80;;;;;;5019212;28;20037;-83
2022/03/22 06:40:29;;;;;;;33.17;25.58;;;10.60;57.80;;;;;;5021051;28;20077;-83
2022/03/22 06:42:56;;;;;;;32.78;24.60;;;10.60;57.80;;;;;;5014132;28;20072;-78
2022/03/22 06:45:23;;;;;;;39.33;27.55;;;10.60;57.80;;;;;;5018659;28;20037;-80
2022/03/22 06:47:48;;;;;;;43.45;30.15;;;10.70;58.00;;;;;;5019181;28;20057;-82
2022/03/22 06:50:16;;;;;;;41.95;29.42;;;10.70;58.00;;;;;;5017921;28;20029;-81
2022/03/22 06:52:42;;;;;;;38.90;28.15;;;10.70;58.10;;;;;;5012461;28;20021;-81
2022/03/22 06:55:10;;;;;;;43.08;30.80;;;10.70;58.20;;;;;;5010954;28;20154;-85
2022/03/22 06:57:37;;;;;;;45.00;30.92;;;10.70;58.20;;;;;;5023478;28;20021;-91
2022/03/22 07:00:08;;;;;;;41.28;31.45;;;10.80;58.40;;;;;;5016177;28;20053;-95
2022/03/22 07:02:35;;;;;;;44.33;32.50;;;10.80;58.40;;;;;;5026579;28;20477;-89
2022/03/22 07:05:03;;;;;;;45.30;32.53;;;10.80;58.50;;;;;;5025420;28;20041;-87
2022/03/22 07:07:28;;;;;;;46.00;32.72;;;10.80;58.50;;;;;;5024430;28;20603;-91
2022/03/22 07:09:54;;;;;;;42.08;31.17;;;10.80;58.50;;;;;;5026235;28;20049;-90
2022/03/22 07:12:20;;;;;;;44.47;32.42;;;10.90;58.60;;;;;;5036022;28;20455;-84
2022/03/22 07:14:46;;;;;;;48.15;32.42;;;10.90;58.60;;;;;;5029514;28;20351;-84
2022/03/22 07:17:12;;;;;;;45.08;32.13;;;11.00;58.70;;;;;;5024944;28;20030;-85
2022/03/22 07:19:38;;;;;;;49.92;33.88;;;11.00;58.70;;;;;;5024002;28;20067;-84
2022/03/22 07:22:05;;;;;;;47.72;32.33;;;11.10;58.70;;;;;;5014688;28;20549;-86
2022/03/22 07:24:31;;;;;;;42.45;32.38;;;11.10;58.60;;;;;;5018268;28;20091;-86
2022/03/22 07:26:58;;;;;;;45.40;32.85;;;11.20;58.70;;;;;;5015223;28;20030;-93
2022/03/22 07:29:23;;;;;;;45.45;32.85;;;11.30;58.90;;;;;;5022019;28;20356;-87
2022/03/22 07:31:49;;;;;;;46.60;32.85;;;11.30;58.80;;;;;;5015497;28;20049;-84
2022/03/22 07:34:17;;;;;;;39.25;30.52;;;11.40;59.00;;;;;;5026839;28;20040;-85
2022/03/22 07:36:46;;;;;;;43.80;31.77;;;11.50;59.10;;;;;;5023311;28;20022;-92
2022/03/22 07:39:14;;;;;;;44.15;31.70;;;11.60;59.10;;;;;;5027472;28;20154;-93
2022/03/22 07:41:43;;;;;;;43.67;31.13;;;11.70;59.10;;;;;;5023214;28;20572;-94
2022/03/22 07:44:13;;;;;;;41.88;29.77;;;11.80;59.10;;;;;;5024892;28;20053;-92
2022/03/22 07:46:44;;;;;;;42.03;30.85;;;12.00;59.20;;;;;;5022873;28;20128;-96
2022/03/22 07:54:39;;;;;;;39.65;30.13;;;12.30;59.20;;;;;;5022160;28;20042;-86
2022/03/22 07:57:09;;;;;;;37.42;29.85;;;12.40;59.10;;;;;;5011049;28;20257;-86
2022/03/22 07:59:36;;;;;;;40.17;29.90;;;12.40;59.10;;;;;;5029002;28;20445;-86
2022/03/22 08:02:02;;;;;;;40.65;30.52;;;12.50;59.20;;;;;;5037452;28;20493;-85
2022/03/22 08:04:28;;;;;;;39.20;30.10;;;12.60;59.30;;;;;;5017303;28;20080;-85
2022/03/22 08:06:54;;;;;;;39.00;30.90;;;12.70;59.40;;;;;;5031129;28;20128;-86
2022/03/22 08:09:20;;;;;;;38.45;27.95;;;12.70;59.30;;;;;;5037910;28;20156;-86
2022/03/22 08:11:46;;;;;;;38.58;29.38;;;12.80;59.40;;;;;;5010551;28;20582;-86
2022/03/22 08:14:12;;;;;;;42.40;32.22;;;12.80;59.40;;;;;;5022828;28;20120;-85
2022/03/22 08:16:40;;;;;;;40.05;30.23;;;12.90;59.50;;;;;;5021749;28;20029;-86
2022/03/22 08:19:07;;;;;;;36.95;28.92;;;12.90;59.50;;;;;;5032641;28;20300;-89
2022/03/22 08:21:35;;;;;;;37.92;28.60;;;13.00;59.60;;;;;;5016865;28;20103;-84
2022/03/22 08:24:01;;;;;;;34.72;28.88;;;13.00;59.40;;;;;;5033106;28;20034;-88
2022/03/22 08:26:32;;;;;;;40.65;30.77;;;13.10;59.60;;;;;;5022974;28;20056;-82
2022/03/22 08:28:58;;;;;;;35.40;27.63;;;13.10;59.40;;;;;;5019488;28;20029;-82
2022/03/22 08:31:24;;;;;;;37.25;31.02;;;13.20;59.60;;;;;;5014714;28;21093;-82
2022/03/22 08:33:53;;;;;;;35.42;29.35;;;13.20;59.50;;;;;;5023293;28;20083;-82
2022/03/22 08:36:21;;;;;;;36.15;27.77;;;13.30;59.60;;;;;;5020453;28;20394;-82
2022/03/22 08:38:49;;;;;;;36.35;28.38;;;13.40;59.70;;;;;;5022475;28;20029;-86
2022/03/22 08:41:15;;;;;;;36.90;28.15;;;13.50;59.70;;;;;;5022662;28;20029;-85
2022/03/22 08:43:42;;;;;;;37.67;29.05;;;13.60;59.70;;;;;;5020676;28;20808;-90
2022/03/22 08:46:08;;;;;;;38.80;29.70;;;13.70;59.70;;;;;;5039011;28;20029;-83
2022/03/22 08:48:37;;;;;;;34.47;28.42;;;13.80;59.70;;;;;;5016080;28;20038;-87
2022/03/22 08:51:04;;;;;;;37.20;29.52;;;14.00;59.90;;;;;;5020620;28;20033;-86
2022/03/22 08:53:33;;;;;;;35.88;29.48;;;14.00;59.70;;;;;;5021799;28;20045;-85
2022/03/22 08:56:03;;;;;;;39.03;28.60;;;14.20;59.80;;;;;;5008249;28;20029;-86
2022/03/22 08:58:29;;;;;;;36.42;28.00;;;14.30;59.80;;;;;;5036264;28;20048;-87
2022/03/22 09:00:55;;;;;;;38.70;27.75;;;14.50;59.90;;;;;;5023036;28;20442;-87
2022/03/22 09:03:22;;;;;;;35.42;28.27;;;14.60;59.70;;;;;;5021217;28;20080;-83
2022/03/22 09:08:35;;;;;;;35.10;28.55;;;14.80;59.70;;;;;;5020482;28;20426;-84
2022/03/22 09:11:01;;;;;;;40.05;30.23;;;14.90;59.70;;;;;;5022693;28;20439;-87
2022/03/22 09:13:29;;;;;;;44.95;30.52;;;15.00;59.80;;;;;;5022517;28;20091;-86
2022/03/22 09:15:56;;;;;;;36.55;27.33;;;15.00;59.80;;;;;;5037356;28;20041;-85
2022/03/22 09:18:22;;;;;;;35.72;27.40;;;15.00;59.80;;;;;;5023072;28;20064;-84
2022/03/22 09:20:49;;;;;;;36.60;29.15;;;15.10;60.00;;;;;;5022245;28;20037;-86
2022/03/22 09:23:17;;;;;;;35.28;28.05;;;15.10;60.00;;;;;;5020403;28;20041;-85
2022/03/22 09:25:43;;;;;;;37.13;28.58;;;15.20;60.10;;;;;;5022036;28;20044;-84
2022/03/22 09:28:11;;;;;;;34.20;27.30;;;15.20;60.10;;;;;;5021734;28;20453;-84
2022/03/22 09:30:38;;;;;;;34.88;26.50;;;15.20;60.10;;;;;;5020097;28;20030;-83
2022/03/22 09:33:05;;;;;;;36.17;27.65;;;15.20;60.00;;;;;;5020077;28;20029;-90
2022/03/22 09:35:31;;;;;;;33.25;27.00;;;15.30;60.20;;;;;;5023728;28;20361;-89
2022/03/22 09:37:59;;;;;;;35.53;26.58;;;15.30;60.20;;;;;;5021428;28;20045;-84
2022/03/22 09:40:27;;;;;;;33.05;26.95;;;15.30;60.10;;;;;;5022474;28;20404;-83
2022/03/22 09:42:55;;;;;;;33.20;25.95;;;15.40;60.30;;;;;;5021135;28;20079;-91
2022/03/22 09:45:33;;;;;;;27.63;23.17;;;15.40;60.30;;;;;;5022870;28;20029;-90
2022/03/22 09:47:59;;;;;;;30.08;23.73;;;15.50;60.70;;;;;;5022550;28;20106;-85
2022/03/22 09:53:15;;;;;;;25.35;21.65;;;15.60;60.90;;;;;;5014320;28;20477;-84
2022/03/22 09:55:41;;;;;;;30.70;24.00;;;15.70;61.20;;;;;;5020432;28;20041;-84
2022/03/22 09:58:07;;;;;;;30.10;23.45;;;15.80;61.40;;;;;;5018036;28;20026;-82
2022/03/22 10:00:33;;;;;;;28.90;23.95;;;15.80;61.30;;;;;;5019522;28;20495;-80
2022/03/22 10:02:59;;;;;;;28.27;23.10;;;15.90;61.40;;;;;;5036152;28;20476;-91
2022/03/22 10:05:26;;;;;;;26.98;23.35;;;15.90;61.40;;;;;;5022066;28;20068;-82
2022/03/22 10:08:19;;;;;;;30.42;22.95;;;15.90;61.40;;;;;;5022225;28;20025;-85
2022/03/22 10:10:57;;;;;;;29.77;23.60;;;16.00;61.60;;;;;;5021753;28;20034;-82
2022/03/22 10:13:23;;;;;;;29.48;21.67;;;16.10;61.70;;;;;;5025691;28;20382;-80
2022/03/22 10:15:49;;;;;;;27.00;22.40;;;16.10;61.70;;;;;;5023587;28;20056;-81
2022/03/22 10:18:23;;;;;;;29.60;22.98;;;16.10;61.70;;;;;;5025565;28;20083;-81
2022/03/22 10:20:59;;;;;;;27.98;22.35;;;16.20;61.90;;;;;;5013732;28;20412;-83
2022/03/22 10:23:25;;;;;;;25.38;21.17;;;16.20;61.90;;;;;;5023242;28;20046;-81
2022/03/22 10:26:04;;;;;;;25.95;21.33;;;16.20;61.80;;;;;;5023895;28;20413;-81
2022/03/22 10:28:31;;;;;;;25.15;20.67;;;16.30;62.00;;;;;;5024715;28;20314;-88
2022/03/22 10:30:57;;;;;;;24.63;18.73;;;16.30;62.00;;;;;;5025754;28;20453;-82
2022/03/22 10:33:23;;;;;;;26.35;18.77;;;16.30;62.10;;;;;;5025102;28;20037;-78
2022/03/22 10:35:50;;;;;;;22.05;18.77;;;16.50;62.60;;;;;;5024856;28;20067;-79
2022/03/22 10:38:19;;;;;;;23.52;18.08;;;16.50;62.50;;;;;;5022927;28;20519;-79
2022/03/22 10:40:47;;;;;;;21.67;18.40;;;16.60;62.60;;;;;;5025411;28;20022;-80
2022/03/22 10:43:18;;;;;;;25.88;21.80;;;16.70;62.60;;;;;;5049078;28;20369;-80
2022/03/22 10:45:52;;;;;;;22.85;19.50;;;16.70;62.40;;;;;;5062400;28;20478;-80
2022/03/22 10:48:26;;;;;;;25.23;18.92;;;16.80;62.50;;;;;;5038310;28;20052;-81
2022/03/22 10:50:54;;;;;;;24.42;20.17;;;16.90;62.50;;;;;;5042165;28;20018;-81
2022/03/22 10:53:26;;;;;;;21.38;18.48;;;16.90;62.40;;;;;;5049034;28;20017;-81
2022/03/22 10:55:54;;;;;;;22.73;19.00;;;17.00;62.60;;;;;;5032226;28;20037;-81
2022/03/22 10:58:27;;;;;;;21.02;17.77;;;17.00;62.50;;;;;;5051404;28;20025;-79
2022/03/22 11:00:54;;;;;;;23.60;19.13;;;17.10;62.70;;;;;;5048947;28;20025;-82
2022/03/22 11:03:21;;;;;;;22.58;18.85;;;17.10;62.60;;;;;;5050648;28;20026;-82
2022/03/22 11:05:54;;;;;;;21.77;18.58;;;17.20;62.70;;;;;;5048287;28;20033;-84
2022/03/22 11:08:25;;;;;;;24.98;18.02;;;17.20;62.70;;;;;;5050709;28;20041;-86
2022/03/22 11:10:54;;;;;;;22.33;18.45;;;17.30;62.90;;;;;;5025198;28;20551;-82
2022/03/22 11:13:21;;;;;;;20.08;16.98;;;17.40;63.00;;;;;;5026152;28;20056;-86
2022/03/22 11:15:48;;;;;;;19.70;16.50;;;17.40;62.90;;;;;;5024760;28;20030;-85
2022/03/22 11:18:16;;;;;;;19.77;16.60;;;17.40;62.90;;;;;;5030667;28;20040;-87
2022/03/22 11:20:58;;;;;;;19.88;16.92;;;17.50;63.00;;;;;;5023046;28;20056;-84
2022/03/22 11:23:26;;;;;;;20.10;17.15;;;17.60;63.30;;;;;;5025308;28;20092;-85
2022/03/22 11:25:53;;;;;;;18.77;16.80;;;17.60;63.10;;;;;;5022529;28;20366;-85
2022/03/22 11:28:23;;;;;;;17.83;15.93;;;17.60;63.10;;;;;;5024332;28;20021;-86
2022/03/22 11:30:51;;;;;;;18.35;16.42;;;17.60;63.00;;;;;;5025548;28;20059;-83
2022/03/22 11:36:13;;;;;;;17.02;15.02;;;17.70;63.10;;;;;;5023964;28;20085;-83
2022/03/22 11:38:47;;;;;;;18.02;16.13;;;17.80;63.20;;;;;;5023398;28;20041;-83
2022/03/22 11:44:34;;;;;;;18.75;14.23;;;17.90;63.20;;;;;;4959470;28;20141;-87
2022/03/22 11:47:04;;;;;;;15.55;13.07;;;18.00;63.20;;;;;;5013649;28;20093;-81
2022/03/22 11:49:30;;;;;;;16.35;13.32;;;18.00;63.00;;;;;;5051692;28;20056;-81
2022/03/22 11:52:10;;;;;;;18.08;13.38;;;18.10;63.00;;;;;;5021697;28;20493;-81
2022/03/22 11:54:37;;;;;;;15.70;13.65;;;18.20;63.10;;;;;;5023849;28;20026;-81
2022/03/22 11:57:05;;;;;;;15.55;13.70;;;18.20;63.00;;;;;;5022636;28;20199;-81
2022/03/22 11:59:52;;;;;;;15.68;13.45;;;18.30;63.10;;;;;;5032792;28;20045;-81
2022/03/22 12:02:28;;;;;;;14.52;12.55;;;18.30;62.80;;;;;;5015799;28;20034;-83
2022/03/22 12:04:55;;;;;;;15.55;13.25;;;18.40;62.90;;;;;;5023977;28;20396;-81
2022/03/22 12:07:28;;;;;;;12.82;11.18;;;18.40;62.80;;;;;;5004499;28;20251;-81
2022/03/22 12:10:13;;;;;;;14.93;12.90;;;18.50;63.00;;;;;;5018304;28;20040;-81
2022/03/22 12:12:42;;;;;;;13.85;12.35;;;18.50;63.00;;;;;;5017049;28;20028;-81
2022/03/22 12:15:10;;;;;;;14.18;12.20;;;18.60;63.10;;;;;;5025663;28;20032;-84
2022/03/22 12:17:37;;;;;;;14.55;12.95;;;18.60;63.00;;;;;;5021976;28;20033;-80
2022/03/22 12:20:08;;;;;;;13.32;10.52;;;18.60;62.80;;;;;;5024827;28;20119;-79
2022/03/22 12:22:39;;;;;;;13.48;11.35;;;18.70;63.00;;;;;;5022813;28;20050;-80
2022/03/22 12:25:05;;;;;;;13.52;12.13;;;18.70;62.90;;;;;;5025667;28;20034;-80
2022/03/22 12:27:31;;;;;;;13.55;11.35;;;18.80;63.10;;;;;;5035635;28;20029;-80
2022/03/22 12:29:57;;;;;;;11.98;10.05;;;18.80;63.00;;;;;;5023062;28;20025;-79
2022/03/22 12:32:26;;;;;;;12.98;11.30;;;18.80;62.90;;;;;;5022806;28;20033;-82
2022/03/22 12:34:53;;;;;;;11.27;10.07;;;18.90;63.10;;;;;;5023877;28;20396;-86
2022/03/22 12:37:19;;;;;;;11.73;10.07;;;18.90;63.00;;;;;;5025182;28;20183;-84
2022/03/22 12:39:48;;;;;;;12.38;10.82;;;19.00;63.10;;;;;;5035001;28;20033;-86
2022/03/22 12:42:16;;;;;;;11.82;10.63;;;19.10;63.20;;;;;;5026689;28;20397;-88
2022/03/22 12:44:42;;;;;;;10.55;9.48;;;19.10;63.10;;;;;;5045554;28;20112;-86
2022/03/22 12:47:09;;;;;;;11.07;9.70;;;19.20;63.10;;;;;;5032305;28;20084;-87
2022/03/22 12:49:39;;;;;;;10.02;9.07;;;19.20;63.10;;;;;;5032735;28;20061;-84
2022/03/22 12:52:07;;;;;;;10.55;9.45;;;19.30;63.20;;;;;;5025519;28;20384;-87
2022/03/22 12:54:42;;;;;;;10.35;9.25;;;19.40;63.30;;;;;;5022330;28;20056;-92
2022/03/22 12:57:11;;;;;;;9.48;8.55;;;19.50;63.40;;;;;;5031430;28;20069;-87
2022/03/22 12:59:38;;;;;;;10.23;9.23;;;19.60;63.50;;;;;;5037645;28;20139;-91
2022/03/22 13:02:08;;;;;;;9.63;8.43;;;19.60;63.40;;;;;;5034666;28;20079;-89
2022/03/22 13:04:46;;;;;;;9.85;8.85;;;19.70;63.50;;;;;;5023766;28;20033;-87
2022/03/22 13:07:20;;;;;;;8.20;7.40;;;19.80;63.50;;;;;;5036037;28;20547;-85
2022/03/22 13:12:33;;;;;;;9.05;7.82;;;20.00;63.70;;;;;;5022010;28;20039;-87